Time;durP1;ratioP1;P1;durP2;ratioP2;P2;SDS_P1;SDS_P2;PMS_P1;PMS_P2;Temp;Humidity;BMP_temperature;BMP_pressure;BME280_temperature;BME280_humidity;BME280_pressure;Samples;Min_cycle;Max_cycle;Signal;HPM_P1;HPM_P2
2021/12/08 00:01:29;;;;;;;;;;;;;;;3.07;100.00;99238.97;5048373;28;19963;-50
2021/12/08 00:03:55;;;;;;;;;;;;;;;3.04;100.00;99219.19;5049639;28;20277;-56
2021/12/08 00:06:22;;;;;;;;;;;;;;;3.15;100.00;99213.38;5049423;28;19928;-56
2021/12/08 00:09:02;;;;;;;;;;;;;;;3.08;100.00;99219.88;5050193;28;20375;-51
2021/12/08 00:14:14;;;;;;;;;;;;;;;3.24;100.00;99219.75;5052323;28;19925;-52
2021/12/08 00:16:41;;;;;;;;;;;;;;;3.09;100.00;99216.31;5051508;28;19935;-50
2021/12/08 00:19:07;;;;;;;;;;;;;;;3.11;100.00;99198.03;5049784;28;19983;-51
2021/12/08 00:21:34;;;;;;;;;;;;;;;3.06;100.00;99198.31;5050263;28;19929;-52
2021/12/08 00:24:01;;;;;;;;;;;;;;;3.07;100.00;99215.59;5052491;28;19925;-52
2021/12/08 00:26:27;;;;;;;;;;;;;;;3.04;100.00;99213.16;5052332;28;19929;-51
2021/12/08 00:28:54;;;;;;;;;;;;;;;3.08;100.00;99208.63;5052021;28;19928;-49
2021/12/08 00:31:21;;;;;;;;;;;;;;;3.05;100.00;99207.03;5048517;28;19925;-54
2021/12/08 00:33:47;;;;;;;;;;;;;;;3.01;100.00;99195.16;5050548;28;19925;-55
2021/12/08 00:36:15;;;;;;;;;;;;;;;3.01;100.00;99188.22;5055282;28;19925;-56
2021/12/08 00:38:42;;;;;;;;;;;;;;;3.03;100.00;99180.34;5054350;28;20077;-58
2021/12/08 00:41:09;;;;;;;;;;;;;;;3.07;100.00;99180.97;5053242;28;19925;-51
2021/12/08 00:43:36;;;;;;;;;;;;;;;2.99;100.00;99184.03;5053254;28;19930;-54
2021/12/08 00:46:03;;;;;;;;;;;;;;;3.01;100.00;99184.78;5049839;28;19935;-57
2021/12/08 00:48:30;;;;;;;;;;;;;;;3.01;100.00;99188.22;5052795;28;20351;-55
2021/12/08 00:50:57;;;;;;;;;;;;;;;3.01;100.00;99183.03;5054985;28;19925;-55
2021/12/08 00:53:24;;;;;;;;;;;;;;;2.99;100.00;99173.66;5054474;28;20408;-55
2021/12/08 00:55:50;;;;;;;;;;;;;;;3.05;100.00;99178.47;5051345;28;19928;-53
2021/12/08 00:58:17;;;;;;;;;;;;;;;3.05;100.00;99183.66;5053511;28;19958;-54
2021/12/08 01:00:49;;;;;;;;;;;;;;;3.10;100.00;99183.41;5050082;28;20200;-55
2021/12/08 01:03:18;;;;;;;;;;;;;;;3.09;100.00;99185.16;5053023;28;19964;-55
2021/12/08 01:05:55;;;;;;;;;;;;;;;3.12;100.00;99190.19;5052658;28;20399;-55
2021/12/08 01:08:22;;;;;;;;;;;;;;;3.12;100.00;99194.50;5054586;28;19924;-56
2021/12/08 01:10:50;;;;;;;;;;;;;;;3.14;100.00;99195.28;5055122;28;19936;-55
2021/12/08 01:13:16;;;;;;;;;;;;;;;3.14;100.00;99188.31;5053153;28;19925;-54
2021/12/08 01:15:45;;;;;;;;;;;;;;;3.13;100.00;99196.19;5083343;28;20595;-51
2021/12/08 01:18:12;;;;;;;;;;;;;;;3.17;100.00;99195.91;5067629;28;19925;-52
2021/12/08 01:20:39;;;;;;;;;;;;;;;3.04;100.00;99201.03;5052347;28;19978;-55
2021/12/08 01:23:09;;;;;;;;;;;;;;;3.06;100.00;99197.50;5054457;28;19925;-54
2021/12/08 01:25:36;;;;;;;;;;;;;;;3.13;100.00;99197.03;5052506;28;20403;-56
2021/12/08 01:28:03;;;;;;;;;;;;;;;3.18;100.00;99188.97;5067868;28;19925;-57
2021/12/08 01:30:30;;;;;;;;;;;;;;;3.24;100.00;99195.53;5053516;28;19932;-55
2021/12/08 01:32:57;;;;;;;;;;;;;;;3.23;100.00;99205.09;5084769;28;20028;-56
2021/12/08 01:35:24;;;;;;;;;;;;;;;3.26;100.00;99212.72;5051750;28;19932;-57
2021/12/08 01:37:51;;;;;;;;;;;;;;;3.24;100.00;99208.53;5049218;28;19983;-53
2021/12/08 01:40:17;;;;;;;;;;;;;;;3.22;100.00;99206.03;5049513;28;19978;-50
2021/12/08 01:42:47;;;;;;;;;;;;;;;3.20;100.00;99213.06;5055061;28;19925;-50
2021/12/08 01:48:05;;;;;;;;;;;;;;;3.28;100.00;99210.84;5054791;28;20364;-56
2021/12/08 01:50:32;;;;;;;;;;;;;;;3.37;100.00;99215.47;5054820;28;19929;-57
2021/12/08 01:52:58;;;;;;;;;;;;;;;3.39;100.00;99223.19;5054764;28;20334;-54
2021/12/08 01:55:26;;;;;;;;;;;;;;;3.37;100.00;99225.88;5070005;28;20283;-49
2021/12/08 01:57:53;;;;;;;;;;;;;;;3.42;100.00;99223.00;5052790;28;19929;-54
2021/12/08 02:00:22;;;;;;;;;;;;;;;3.46;100.00;99224.47;5052455;28;19929;-53
2021/12/08 02:02:49;;;;;;;;;;;;;;;3.45;100.00;99219.38;5052078;28;19935;-54
2021/12/08 02:05:17;;;;;;;;;;;;;;;3.52;100.00;99213.72;5084093;28;19932;-56
2021/12/08 02:07:44;;;;;;;;;;;;;;;3.58;100.00;99222.06;5053321;28;19929;-51
2021/12/08 02:10:11;;;;;;;;;;;;;;;3.59;100.00;99205.53;5050592;28;19924;-56
2021/12/08 02:12:40;;;;;;;;;;;;;;;3.69;100.00;99215.25;5083536;28;19932;-51
2021/12/08 02:15:08;;;;;;;;;;;;;;;3.65;100.00;99220.75;5052179;28;20037;-56
2021/12/08 02:17:35;;;;;;;;;;;;;;;3.62;100.00;99218.34;5050422;28;19928;-56
2021/12/08 02:20:04;;;;;;;;;;;;;;;3.63;100.00;99215.66;5051532;28;19925;-49
2021/12/08 02:22:31;;;;;;;;;;;;;;;3.62;100.00;99215.75;5050133;28;19990;-47
2021/12/08 02:24:57;;;;;;;;;;;;;;;3.69;100.00;99198.81;5083317;28;19929;-49
2021/12/08 02:27:24;;;;;;;;;;;;;;;3.70;100.00;99211.72;5054068;28;20134;-50
2021/12/08 02:30:00;;;;;;;;;;;;;;;3.75;100.00;99221.00;5053997;28;19970;-51
2021/12/08 02:46:34;;;;;;;;;;;;;;;3.71;100.00;99221.19;5080860;28;19929;-50
2021/12/08 02:49:03;;;;;;;;;;;;;;;3.89;100.00;99242.63;5051148;28;20279;-53
2021/12/08 02:51:30;;;;;;;;;;;;;;;3.91;100.00;99246.88;5051929;28;20320;-51
2021/12/08 02:53:59;;;;;;;;;;;;;;;3.98;100.00;99251.63;5053902;28;19979;-52
2021/12/08 02:56:26;;;;;;;;;;;;;;;3.98;100.00;99250.78;5051341;28;19925;-50
2021/12/08 02:58:52;;;;;;;;;;;;;;;4.04;100.00;99250.41;5051236;28;20374;-55
2021/12/08 03:01:19;;;;;;;;;;;;;;;4.02;100.00;99257.44;5051048;28;19933;-55
2021/12/08 03:03:46;;;;;;;;;;;;;;;4.02;100.00;99252.25;5049148;28;19931;-49
2021/12/08 03:06:13;;;;;;;;;;;;;;;4.08;100.00;99259.69;5051322;28;19935;-55
2021/12/08 03:08:40;;;;;;;;;;;;;;;4.09;100.00;99257.91;5048658;28;19929;-49
2021/12/08 03:11:06;;;;;;;;;;;;;;;4.07;100.00;99261.41;5050652;28;19928;-53
2021/12/08 03:13:33;;;;;;;;;;;;;;;4.10;100.00;99254.38;5050305;28;20023;-57
2021/12/08 03:16:00;;;;;;;;;;;;;;;4.06;100.00;99264.13;5050984;28;19925;-52
2021/12/08 03:18:35;;;;;;;;;;;;;;;4.05;100.00;99263.31;5049998;28;20399;-51
2021/12/08 03:21:04;;;;;;;;;;;;;;;4.05;100.00;99254.69;5050882;28;19974;-51
2021/12/08 03:23:47;;;;;;;;;;;;;;;4.02;100.00;99252.25;5048635;28;19972;-51
2021/12/08 03:26:14;;;;;;;;;;;;;;;4.09;100.00;99258.75;5053122;28;20396;-51
2021/12/08 03:28:55;;;;;;;;;;;;;;;4.03;100.00;99259.13;5050601;28;19925;-55
2021/12/08 03:31:29;;;;;;;;;;;;;;;3.99;100.00;99252.44;5050713;28;19955;-53
2021/12/08 03:33:55;;;;;;;;;;;;;;;3.99;100.00;99257.66;5082670;28;19971;-56
2021/12/08 03:36:22;;;;;;;;;;;;;;;3.95;100.00;99263.97;5050466;28;19931;-54
2021/12/08 03:38:49;;;;;;;;;;;;;;;3.98;100.00;99269.84;5049198;28;20399;-56
2021/12/08 03:41:19;;;;;;;;;;;;;;;3.99;100.00;99268.88;5083934;28;20378;-57
2021/12/08 03:43:46;;;;;;;;;;;;;;;4.03;100.00;99267.75;5085054;28;20273;-55
2021/12/08 03:46:16;;;;;;;;;;;;;;;4.17;100.00;99276.47;5052747;28;19925;-56
2021/12/08 03:48:49;;;;;;;;;;;;;;;4.16;100.00;99275.63;5051667;28;19931;-51
2021/12/08 03:51:16;;;;;;;;;;;;;;;4.20;100.00;99271.91;5084181;28;19924;-56
2021/12/08 03:53:43;;;;;;;;;;;;;;;4.22;100.00;99270.03;5051438;28;20410;-52
2021/12/08 03:56:09;;;;;;;;;;;;;;;4.28;100.00;99270.56;5052736;28;19929;-56
2021/12/08 03:58:36;;;;;;;;;;;;;;;4.34;100.00;99265.81;5052421;28;19936;-56
2021/12/08 04:01:04;;;;;;;;;;;;;;;4.40;100.00;99261.97;5052696;28;19925;-49
2021/12/08 04:03:32;;;;;;;;;;;;;;;4.39;100.00;99268.97;5052144;28;19931;-54
2021/12/08 04:06:03;;;;;;;;;;;;;;;4.44;100.00;99270.44;5065423;28;19924;-57
2021/12/08 04:08:42;;;;;;;;;;;;;;;4.43;100.00;99271.34;5049962;28;20403;-48
2021/12/08 04:11:09;;;;;;;;;;;;;;;4.46;100.00;99277.22;5080171;28;19924;-47
2021/12/08 04:13:45;;;;;;;;;;;;;;;4.47;100.00;99289.31;5049428;28;19925;-55
2021/12/08 04:16:13;;;;;;;;;;;;;;;4.48;100.00;99290.94;5052264;28;19925;-54
2021/12/08 04:18:40;;;;;;;;;;;;;;;4.51;100.00;99295.97;5052388;28;19928;-47
2021/12/08 04:21:07;;;;;;;;;;;;;;;4.54;100.00;99293.16;5067648;28;19925;-47
2021/12/08 04:23:36;;;;;;;;;;;;;;;4.55;100.00;99297.44;5047374;28;19975;-48
2021/12/08 04:26:07;;;;;;;;;;;;;;;4.63;100.00;99301.31;5048642;28;19925;-56
2021/12/08 04:28:34;;;;;;;;;;;;;;;4.63;100.00;99309.13;5048339;28;19932;-48
2021/12/08 04:31:03;;;;;;;;;;;;;;;4.63;100.00;99311.72;5051862;28;19953;-52
2021/12/08 04:33:31;;;;;;;;;;;;;;;4.64;100.00;99308.19;5049095;28;19983;-48
2021/12/08 04:35:59;;;;;;;;;;;;;;;4.65;100.00;99320.25;5050063;28;20455;-56
2021/12/08 04:38:31;;;;;;;;;;;;;;;4.65;100.00;99320.25;5047664;28;19933;-50
2021/12/08 04:43:45;;;;;;;;;;;;;;;4.63;100.00;99319.53;5050410;28;19948;-51
2021/12/08 04:46:25;;;;;;;;;;;;;;;4.68;100.00;99328.72;5077416;28;19933;-56
2021/12/08 04:49:15;;;;;;;;;;;;;;;4.64;100.00;99324.66;5049393;28;19933;-56
2021/12/08 04:51:53;;;;;;;;;;;;;;;4.61;100.00;99322.25;5049395;28;19932;-56
2021/12/08 05:07:52;;;;;;;;;;;;;;;4.49;100.00;99318.66;5049233;28;19932;-57
2021/12/08 05:10:21;;;;;;;;;;;;;;;4.38;100.00;99310.72;5047705;28;19933;-52
2021/12/08 05:12:49;;;;;;;;;;;;;;;4.33;100.00;99315.38;5049308;28;20332;-50
2021/12/08 05:15:18;;;;;;;;;;;;;;;4.34;100.00;99320.47;5081638;28;19924;-50
2021/12/08 05:17:55;;;;;;;;;;;;;;;4.28;100.00;99322.63;5081026;28;19929;-55
2021/12/08 05:20:27;;;;;;;;;;;;;;;4.26;100.00;99333.13;5050540;28;19932;-52
2021/12/08 05:22:55;;;;;;;;;;;;;;;4.16;100.00;99332.03;5053058;28;19924;-54
2021/12/08 05:25:23;;;;;;;;;;;;;;;4.19;100.00;99339.66;5055588;28;19929;-56
2021/12/08 05:27:51;;;;;;;;;;;;;;;4.09;100.00;99352.41;5054609;28;19924;-54
2021/12/08 05:30:23;;;;;;;;;;;;;;;4.06;100.00;99357.78;5053214;28;20640;-56
2021/12/08 05:32:49;;;;;;;;;;;;;;;3.99;100.00;99356.50;5052383;28;19929;-49
2021/12/08 05:35:17;;;;;;;;;;;;;;;3.99;100.00;99352.13;5054770;28;19925;-49
2021/12/08 05:37:43;;;;;;;;;;;;;;;3.95;100.00;99355.03;5053096;28;19928;-54
2021/12/08 05:40:12;;;;;;;;;;;;;;;3.94;100.00;99361.16;5051137;28;19982;-55
2021/12/08 05:42:38;;;;;;;;;;;;;;;3.96;100.00;99374.91;5051866;28;19929;-56
2021/12/08 05:45:07;;;;;;;;;;;;;;;3.93;100.00;99362.06;5053200;28;20375;-52
2021/12/08 05:47:34;;;;;;;;;;;;;;;3.93;100.00;99367.28;5053736;28;19940;-52
2021/12/08 05:50:01;;;;;;;;;;;;;;;3.93;100.00;99367.28;5055041;28;20383;-51
2021/12/08 05:52:28;;;;;;;;;;;;;;;3.89;100.00;99377.03;5054122;28;20035;-55
2021/12/08 05:54:58;;;;;;;;;;;;;;;3.91;100.00;99384.75;5082294;28;19929;-54
2021/12/08 05:57:28;;;;;;;;;;;;;;;3.90;100.00;99389.13;5053744;28;19968;-56
2021/12/08 05:59:55;;;;;;;;;;;;;;;3.95;100.00;99387.06;5052623;28;20308;-51
2021/12/08 06:02:26;;;;;;;;;;;;;;;3.98;100.00;99378.25;5052218;28;19928;-55
2021/12/08 06:04:53;;;;;;;;;;;;;;;3.97;100.00;99374.00;5051722;28;19925;-47
2021/12/08 06:07:22;;;;;;;;;;;;;;;3.98;100.00;99381.69;5053299;28;20384;-50
2021/12/08 06:09:50;;;;;;;;;;;;;;;3.98;100.00;99379.09;5084056;28;19952;-52
2021/12/08 06:12:17;;;;;;;;;;;;;;;3.95;100.00;99373.22;5051969;28;20396;-49
2021/12/08 06:14:44;;;;;;;;;;;;;;;3.98;100.00;99375.63;5083903;28;19929;-50
2021/12/08 06:17:14;;;;;;;;;;;;;;;3.96;100.00;99380.13;5084185;28;20666;-53
2021/12/08 06:19:42;;;;;;;;;;;;;;;3.98;100.00;99392.09;5053352;28;19975;-48
2021/12/08 06:22:09;;;;;;;;;;;;;;;3.93;100.00;99393.28;5051716;28;19938;-52
2021/12/08 06:24:36;;;;;;;;;;;;;;;3.92;100.00;99402.88;5051683;28;19948;-50
2021/12/08 06:27:03;;;;;;;;;;;;;;;3.87;100.00;99395.34;5054173;28;19971;-49
2021/12/08 06:29:30;;;;;;;;;;;;;;;3.88;100.00;99398.78;5085985;28;20368;-56
2021/12/08 06:31:57;;;;;;;;;;;;;;;3.95;100.00;99404.44;5052328;28;19925;-53
2021/12/08 06:34:25;;;;;;;;;;;;;;;3.90;100.00;99404.75;5053942;28;19979;-56
2021/12/08 06:36:53;;;;;;;;;;;;;;;3.87;100.00;99397.94;5053989;28;20399;-51
2021/12/08 06:39:21;;;;;;;;;;;;;;;3.93;100.00;99419.28;5054002;28;19964;-49
2021/12/08 06:41:52;;;;;;;;;;;;;;;3.92;100.00;99407.25;5054052;28;20334;-49
2021/12/08 06:44:20;;;;;;;;;;;;;;;3.88;100.00;99417.00;5054252;28;19925;-54
2021/12/08 06:46:49;;;;;;;;;;;;;;;3.89;100.00;99414.28;5084423;28;20257;-56
2021/12/08 06:49:16;;;;;;;;;;;;;;;3.85;100.00;99417.19;5050754;28;19979;-55
2021/12/08 06:51:51;;;;;;;;;;;;;;;3.83;100.00;99430.28;5050284;28;19979;-53
2021/12/08 06:54:23;;;;;;;;;;;;;;;3.86;100.00;99445.69;5049201;28;20449;-55
2021/12/08 06:56:54;;;;;;;;;;;;;;;3.91;100.00;99447.19;5050809;28;20750;-54
2021/12/08 06:59:23;;;;;;;;;;;;;;;3.97;100.00;99445.06;5082659;28;20387;-51
2021/12/08 07:04:30;;;;;;;;;;;;;;;3.98;100.00;99436.34;5050824;28;19925;-54
2021/12/08 07:07:23;;;;;;;;;;;;;;;4.00;100.00;99446.63;5050877;28;19925;-56
2021/12/08 07:09:58;;;;;;;;;;;;;;;3.96;100.00;99440.78;5049403;28;19974;-52
2021/12/08 07:12:30;;;;;;;;;;;;;;;3.95;100.00;99452.09;5048734;28;19925;-54
2021/12/08 07:15:07;;;;;;;;;;;;;;;3.88;100.00;99436.03;5050905;28;19925;-56
2021/12/08 07:17:35;;;;;;;;;;;;;;;3.94;100.00;99436.59;5050411;28;19932;-56
2021/12/08 07:20:14;;;;;;;;;;;;;;;3.85;100.00;99446.63;5050150;28;20364;-53
2021/12/08 07:22:43;;;;;;;;;;;;;;;3.95;100.00;99446.91;5080423;28;19934;-52
2021/12/08 07:25:12;;;;;;;;;;;;;;;3.87;100.00;99465.59;5083502;28;20453;-56
2021/12/08 07:27:39;;;;;;;;;;;;;;;3.85;100.00;99475.22;5050063;28;19935;-56
2021/12/08 07:30:11;;;;;;;;;;;;;;;3.82;100.00;99469.38;5082694;28;19925;-55
2021/12/08 07:32:38;;;;;;;;;;;;;;;3.86;100.00;99468.28;5053139;28;19925;-54
2021/12/08 07:35:25;;;;;;;;;;;;;;;3.78;100.00;99479.13;5051855;28;20459;-55
2021/12/08 07:37:52;;;;;;;;;;;;;;;3.77;100.00;99480.03;5049784;28;19928;-55
2021/12/08 07:40:19;;;;;;;;;;;;;;;3.79;100.00;99483.41;5048893;28;20375;-55
2021/12/08 07:43:05;;;;;;;;;;;;;;;3.73;100.00;99496.75;5048035;28;19939;-56
2021/12/08 07:45:40;;;;;;;;;;;;;;;3.67;100.00;99504.94;5049522;28;19925;-53
2021/12/08 07:48:11;;;;;;;;;;;;;;;3.64;100.00;99507.69;5049980;28;20291;-54
2021/12/08 07:50:43;;;;;;;;;;;;;;;3.65;100.00;99515.38;5050131;28;19951;-54
2021/12/08 07:53:10;;;;;;;;;;;;;;;3.64;100.00;99510.28;5050828;28;19925;-56
2021/12/08 07:55:38;;;;;;;;;;;;;;;3.61;100.00;99508.69;5049816;28;19929;-53
2021/12/08 07:58:05;;;;;;;;;;;;;;;3.61;100.00;99494.88;5051513;28;19925;-55
2021/12/08 08:00:43;;;;;;;;;;;;;;;3.61;100.00;99500.88;5084717;28;20318;-53
2021/12/08 08:03:10;;;;;;;;;;;;;;;3.62;100.00;99514.75;5052635;28;19925;-55
2021/12/08 08:05:37;;;;;;;;;;;;;;;3.55;100.00;99511.66;5052097;28;19925;-53
2021/12/08 08:08:07;;;;;;;;;;;;;;;3.62;100.00;99519.94;5049243;28;19935;-53
2021/12/08 08:10:35;;;;;;;;;;;;;;;3.55;100.00;99515.09;5081658;28;19970;-54
2021/12/08 08:13:07;;;;;;;;;;;;;;;3.53;100.00;99516.09;5049914;28;19964;-55
2021/12/08 08:15:36;;;;;;;;;;;;;;;3.53;100.00;99506.53;5049742;28;19979;-56
2021/12/08 08:18:08;;;;;;;;;;;;;;;3.51;100.00;99497.16;5081111;28;19932;-51
2021/12/08 08:20:36;;;;;;;;;;;;;;;3.50;100.00;99503.28;5050373;28;19954;-50
2021/12/08 08:23:03;;;;;;;;;;;;;;;3.53;100.00;99509.16;5052301;28;19971;-55
2021/12/08 08:25:41;;;;;;;;;;;;;;;3.48;100.00;99508.56;5050761;28;20002;-52
2021/12/08 08:28:08;;;;;;;;;;;;;;;3.54;100.00;99504.78;5050066;28;19925;-56
2021/12/08 08:30:40;;;;;;;;;;;;;;;3.55;100.00;99511.66;5049955;28;19925;-57
2021/12/08 08:33:07;;;;;;;;;;;;;;;3.58;100.00;99518.44;5050418;28;19975;-57
2021/12/08 08:35:33;;;;;;;;;;;;;;;3.65;100.00;99530.16;5050429;28;19929;-50
2021/12/08 08:38:02;;;;;;;;;;;;;;;3.63;100.00;99532.84;5048919;28;20051;-53
2021/12/08 08:40:36;;;;;;;;;;;;;;;3.67;100.00;99533.53;5048849;28;19925;-56
2021/12/08 08:43:03;;;;;;;;;;;;;;;3.70;100.00;99533.34;5049181;28;19933;-56
2021/12/08 08:45:32;;;;;;;;;;;;;;;3.72;100.00;99537.53;5064760;28;19979;-51
2021/12/08 08:47:58;;;;;;;;;;;;;;;3.73;100.00;99538.38;5049689;28;20425;-56
2021/12/08 08:50:28;;;;;;;;;;;;;;;3.76;100.00;99545.97;5050735;28;19986;-55
2021/12/08 08:52:56;;;;;;;;;;;;;;;3.82;100.00;99534.41;5049737;28;19925;-50
2021/12/08 08:55:41;;;;;;;;;;;;;;;3.81;100.00;99546.56;5051609;28;19974;-53
2021/12/08 08:58:09;;;;;;;;;;;;;;;3.85;100.00;99540.25;5056230;28;19932;-57
2021/12/08 09:00:41;;;;;;;;;;;;;;;3.88;100.00;99540.06;5087640;28;20288;-55
2021/12/08 09:03:09;;;;;;;;;;;;;;;3.95;100.00;99531.91;5054026;28;20301;-54
2021/12/08 09:05:56;;;;;;;;;;;;;;;3.95;100.00;99532.75;5053248;28;20322;-47
2021/12/08 09:08:24;;;;;;;;;;;;;;;4.01;100.00;99544.59;5055896;28;19924;-54
2021/12/08 09:10:56;;;;;;;;;;;;;;;4.15;100.00;99544.59;5055598;28;19983;-54
2021/12/08 09:13:23;;;;;;;;;;;;;;;4.09;100.00;99544.97;5055566;28;20449;-48
2021/12/08 09:15:51;;;;;;;;;;;;;;;4.18;99.81;99543.56;5055829;28;19928;-48
2021/12/08 09:18:21;;;;;;;;;;;;;;;4.16;100.00;99551.47;5052298;28;20396;-49
2021/12/08 09:20:55;;;;;;;;;;;;;;;4.22;99.63;99552.88;5052975;28;20419;-51
2021/12/08 09:23:30;;;;;;;;;;;;;;;4.35;99.57;99555.56;5053885;28;19925;-52
2021/12/08 09:26:00;;;;;;;;;;;;;;;4.28;99.87;99556.88;5055496;28;19925;-51
2021/12/08 09:28:34;;;;;;;;;;;;;;;4.21;99.49;99561.59;5085474;28;19925;-49
2021/12/08 09:31:11;;;;;;;;;;;;;;;4.15;99.44;99564.59;5053085;28;19925;-52
2021/12/08 09:33:44;;;;;;;;;;;;;;;4.11;100.00;99550.91;5052038;28;19974;-50
2021/12/08 09:36:14;;;;;;;;;;;;;;;4.26;99.31;99554.38;5053764;28;19975;-56
2021/12/08 09:38:46;;;;;;;;;;;;;;;4.37;99.02;99553.72;5055247;28;19932;-51
2021/12/08 09:41:16;;;;;;;;;;;;;;;4.38;97.93;99555.41;5053801;28;19932;-55
2021/12/08 09:43:45;;;;;;;;;;;;;;;4.43;98.35;99553.38;5052006;28;19968;-51
2021/12/08 09:46:26;;;;;;;;;;;;;;;4.42;98.02;99562.09;5051794;28;19929;-57
2021/12/08 09:48:58;;;;;;;;;;;;;;;4.47;98.06;99559.22;5055048;28;19925;-49
2021/12/08 09:51:26;;;;;;;;;;;;;;;4.52;96.27;99565.81;5054920;28;19931;-50
2021/12/08 09:53:53;;;;;;;;;;;;;;;4.54;96.51;99565.72;5086597;28;19925;-51
2021/12/08 09:56:20;;;;;;;;;;;;;;;4.56;96.94;99550.84;5052476;28;19925;-50
2021/12/08 09:58:47;;;;;;;;;;;;;;;4.61;95.77;99558.38;5053323;28;20300;-55
2021/12/08 10:01:18;;;;;;;;;;;;;;;4.63;95.51;99569.56;5053767;28;19925;-56
2021/12/08 10:03:45;;;;;;;;;;;;;;;4.73;96.35;99560.22;5051328;28;19929;-54
2021/12/08 10:06:12;;;;;;;;;;;;;;;4.69;95.79;99543.13;5052222;28;19936;-54
2021/12/08 10:08:42;;;;;;;;;;;;;;;4.68;96.06;99554.50;5049976;28;19924;-52
2021/12/08 10:11:09;;;;;;;;;;;;;;;4.70;94.79;99547.41;5084081;28;19935;-51
2021/12/08 10:13:36;;;;;;;;;;;;;;;4.73;95.72;99549.81;5051587;28;19933;-53
2021/12/08 10:16:04;;;;;;;;;;;;;;;4.82;93.77;99548.44;5085227;28;19987;-56
2021/12/08 10:18:30;;;;;;;;;;;;;;;4.90;95.06;99549.63;5083747;28;19936;-56
2021/12/08 10:20:57;;;;;;;;;;;;;;;4.91;94.25;99538.25;5084061;28;19936;-52
2021/12/08 10:23:30;;;;;;;;;;;;;;;4.90;93.57;99520.94;5054073;28;19924;-56
2021/12/08 10:25:58;;;;;;;;;;;;;;;4.88;92.93;99512.41;5054515;28;20402;-53
2021/12/08 10:28:36;;;;;;;;;;;;;;;4.89;94.58;99500.22;5054306;28;19924;-56
2021/12/08 10:31:28;;;;;;;;;;;;;;;4.86;93.32;99506.44;5083659;28;19925;-52
2021/12/08 10:34:02;;;;;;;;;;;;;;;4.88;93.58;99502.00;5051310;28;19975;-50
2021/12/08 10:39:04;;;;;;;;;;;;;;;4.90;93.82;99492.28;5053247;28;19932;-56
2021/12/08 10:41:50;;;;;;;;;;;;;;;4.88;93.62;99491.56;5053846;28;20027;-50
2021/12/08 10:44:46;;;;;;;;;;;;;;;4.96;93.83;99490.25;5050208;28;19925;-55
2021/12/08 10:47:19;;;;;;;;;;;;;;;4.94;93.39;99497.34;5051806;28;19929;-51
2021/12/08 10:55:21;;;;;;;;;;;;;;;5.06;93.50;99506.97;5047579;28;19932;-51
2021/12/08 10:57:50;;;;;;;;;;;;;;;5.03;94.17;99518.44;5050292;28;19924;-55
2021/12/08 11:00:28;;;;;;;;;;;;;;;4.97;93.66;99538.81;5052659;28;19971;-51
2021/12/08 11:03:02;;;;;;;;;;;;;;;4.98;94.07;99532.69;5052612;28;19925;-53
2021/12/08 11:05:32;;;;;;;;;;;;;;;4.98;93.17;99538.72;5050740;28;19928;-51
2021/12/08 11:08:06;;;;;;;;;;;;;;;5.00;93.46;99529.03;5052410;28;20327;-54
2021/12/08 11:10:34;;;;;;;;;;;;;;;4.99;93.71;99535.19;5085186;28;20406;-53
2021/12/08 11:13:01;;;;;;;;;;;;;;;5.01;94.11;99533.31;5053223;28;20356;-52
2021/12/08 11:15:28;;;;;;;;;;;;;;;5.12;94.00;99529.22;5052105;28;19925;-47
2021/12/08 11:18:15;;;;;;;;;;;;;;;5.22;93.29;99541.56;5053126;28;20376;-47
2021/12/08 11:20:46;;;;;;;;;;;;;;;5.19;92.34;99557.38;5051529;28;19929;-54
2021/12/08 11:23:16;;;;;;;;;;;;;;;5.18;93.05;99560.94;5049051;28;19929;-48
2021/12/08 11:25:45;;;;;;;;;;;;;;;5.25;93.54;99577.03;5053506;28;19924;-47
2021/12/08 11:28:30;;;;;;;;;;;;;;;5.31;92.70;99584.44;5053260;28;19924;-55
2021/12/08 11:31:03;;;;;;;;;;;;;;;5.40;92.21;99585.66;5084792;28;20296;-48
2021/12/08 11:33:29;;;;;;;;;;;;;;;5.45;93.05;99588.78;5050570;28;20058;-48
2021/12/08 11:36:16;;;;;;;;;;;;;;;5.45;92.80;99594.00;5050475;28;19924;-53
2021/12/08 11:38:44;;;;;;;;;;;;;;;5.45;92.29;99601.81;5053019;28;20288;-47
2021/12/08 11:41:23;;;;;;;;;;;;;;;5.46;93.43;99598.28;5053030;28;19994;-48
2021/12/08 11:43:56;;;;;;;;;;;;;;;5.47;93.33;99596.50;5050900;28;19928;-52
2021/12/08 11:46:24;;;;;;;;;;;;;;;5.56;91.73;99595.91;5050744;28;19929;-57
2021/12/08 11:49:07;;;;;;;;;;;;;;;5.55;91.19;99604.69;5084752;28;19968;-51
2021/12/08 11:51:49;;;;;;;;;;;;;;;5.46;91.94;99608.72;5082563;28;20311;-53
2021/12/08 11:54:31;;;;;;;;;;;;;;;5.47;91.75;99605.19;5048423;28;19929;-56
2021/12/08 11:57:11;;;;;;;;;;;;;;;5.44;91.70;99609.75;5050437;28;20401;-57
2021/12/08 11:59:49;;;;;;;;;;;;;;;5.49;91.49;99605.91;5082182;28;19932;-56
2021/12/08 12:02:17;;;;;;;;;;;;;;;5.54;90.14;99606.44;5050347;28;19925;-57
2021/12/08 12:04:44;;;;;;;;;;;;;;;5.48;90.61;99619.03;5080699;28;19936;-57
2021/12/08 12:07:12;;;;;;;;;;;;;;;5.47;90.90;99628.66;5050213;28;19939;-56
2021/12/08 12:09:38;;;;;;;;;;;;;;;5.49;90.97;99631.97;5048844;28;20272;-56
2021/12/08 12:12:05;;;;;;;;;;;;;;;5.41;90.60;99639.44;5052643;28;19925;-57
2021/12/08 12:14:32;;;;;;;;;;;;;;;5.46;90.34;99644.41;5052533;28;19932;-54
2021/12/08 12:16:59;;;;;;;;;;;;;;;5.35;91.24;99639.84;5051248;28;19930;-54
2021/12/08 12:19:28;;;;;;;;;;;;;;;5.33;92.04;99639.94;5081334;28;19974;-58
2021/12/08 12:21:59;;;;;;;;;;;;;;;5.32;91.60;99650.47;5050462;28;19925;-51
2021/12/08 12:24:45;;;;;;;;;;;;;;;5.36;91.72;99644.13;5084464;28;20285;-51
2021/12/08 12:27:11;;;;;;;;;;;;;;;5.37;91.38;99645.78;5052525;28;19947;-52
2021/12/08 12:29:47;;;;;;;;;;;;;;;5.41;91.57;99644.66;5050809;28;19947;-57
2021/12/08 12:32:21;;;;;;;;;;;;;;;5.36;91.32;99647.56;5054278;28;19933;-57
2021/12/08 12:34:52;;;;;;;;;;;;;;;5.37;91.19;99656.22;5056268;28;19932;-56
2021/12/08 12:37:33;;;;;;;;;;;;;;;5.38;91.68;99650.91;5087482;28;19925;-57
2021/12/08 12:40:00;;;;;;;;;;;;;;;5.48;91.06;99659.03;5054857;28;19948;-56
2021/12/08 12:42:27;;;;;;;;;;;;;;;5.45;90.59;99661.78;5053770;28;19925;-57
2021/12/08 12:44:57;;;;;;;;;;;;;;;5.44;90.61;99670.56;5054101;28;19929;-57
2021/12/08 12:47:26;;;;;;;;;;;;;;;5.47;90.57;99662.56;5054144;28;19929;-53
2021/12/08 12:49:59;;;;;;;;;;;;;;;5.54;89.80;99666.44;5053214;28;19932;-56
2021/12/08 12:52:39;;;;;;;;;;;;;;;5.56;90.37;99669.81;5055432;28;19925;-56
2021/12/08 12:55:07;;;;;;;;;;;;;;;5.56;89.91;99664.59;5055882;28;20941;-54
2021/12/08 12:57:54;;;;;;;;;;;;;;;5.54;89.60;99669.06;5055025;28;19925;-53
2021/12/08 13:00:25;;;;;;;;;;;;;;;5.54;90.43;99661.22;5054716;28;19937;-57
2021/12/08 13:02:52;;;;;;;;;;;;;;;5.51;90.23;99663.22;5053605;28;19929;-57
2021/12/08 13:05:18;;;;;;;;;;;;;;;5.56;90.06;99664.59;5053267;28;19925;-57
2021/12/08 13:07:56;;;;;;;;;;;;;;;5.54;89.89;99665.63;5053188;28;19931;-57
2021/12/08 13:10:30;;;;;;;;;;;;;;;5.53;90.77;99664.75;5055712;28;19932;-56
2021/12/08 13:13:17;;;;;;;;;;;;;;;5.58;89.51;99662.69;5084233;28;20391;-56
2021/12/08 13:15:44;;;;;;;;;;;;;;;5.67;89.52;99660.44;5052490;28;19986;-57
2021/12/08 13:18:15;;;;;;;;;;;;;;;5.66;89.45;99658.75;5067921;28;19964;-56
2021/12/08 13:20:46;;;;;;;;;;;;;;;5.58;89.28;99661.88;5085022;28;19928;-56
2021/12/08 13:23:14;;;;;;;;;;;;;;;5.63;89.16;99669.41;5051176;28;20219;-56
2021/12/08 13:28:09;;;;;;;;;;;;;;;5.48;89.92;99679.88;5053561;28;19928;-57
2021/12/08 13:30:47;;;;;;;;;;;;;;;5.45;90.37;99674.84;5052340;28;19929;-57
2021/12/08 13:33:25;;;;;;;;;;;;;;;5.45;89.74;99677.44;5052420;28;19929;-56
2021/12/08 13:35:55;;;;;;;;;;;;;;;5.47;89.77;99680.81;5052966;28;19925;-56
2021/12/08 13:38:22;;;;;;;;;;;;;;;5.46;89.22;99681.72;5082619;28;19982;-57
2021/12/08 13:40:51;;;;;;;;;;;;;;;5.50;90.52;99682.38;5052370;28;19955;-56
2021/12/08 13:43:33;;;;;;;;;;;;;;;5.51;89.94;99686.69;5051909;28;19932;-56
2021/12/08 13:45:59;;;;;;;;;;;;;;;5.40;90.11;99687.34;5052611;28;19932;-57
2021/12/08 13:48:26;;;;;;;;;;;;;;;5.39;91.20;99693.47;5051364;28;19936;-56
2021/12/08 13:50:53;;;;;;;;;;;;;;;5.40;91.46;99697.78;5051478;28;19955;-57
2021/12/08 13:53:23;;;;;;;;;;;;;;;5.42;91.37;99698.50;5050896;28;19929;-57
2021/12/08 13:55:53;;;;;;;;;;;;;;;5.38;91.17;99697.00;5084074;28;19924;-56